sensor_id;sensor_type;location;lat;lon;timestamp;pressure;altitude;pressure_sealevel;temperature
78225;BMP280;67498;53.650;10.090;2024-02-15T00:01:20;101334.91;;;11.38
78225;BMP280;67498;53.650;10.090;2024-02-15T00:03:46;101342.38;;;11.39
78225;BMP280;67498;53.650;10.090;2024-02-15T00:06:11;101331.91;;;11.39
78225;BMP280;67498;53.650;10.090;2024-02-15T00:08:37;101330.44;;;11.38
78225;BMP280;67498;53.650;10.090;2024-02-15T00:11:02;101339.38;;;11.41
78225;BMP280;67498;53.650;10.090;2024-02-15T00:13:27;101350.56;;;11.41
78225;BMP280;67498;53.650;10.090;2024-02-15T00:15:53;101338.66;;;11.37
78225;BMP280;67498;53.650;10.090;2024-02-15T00:18:18;101348.69;;;11.42
78225;BMP280;67498;53.650;10.090;2024-02-15T00:20:43;101351.28;;;11.42
78225;BMP280;67498;53.650;10.090;2024-02-15T00:23:09;101346.81;;;11.42
78225;BMP280;67498;53.650;10.090;2024-02-15T00:25:34;101341.56;;;11.42
78225;BMP280;67498;53.650;10.090;2024-02-15T00:28:01;101341.56;;;11.42
78225;BMP280;67498;53.650;10.090;2024-02-15T00:30:27;101338.59;;;11.44
78225;BMP280;67498;53.650;10.090;2024-02-15T00:32:52;101333.38;;;11.44
78225;BMP280;67498;53.650;10.090;2024-02-15T00:35:18;101337.09;;;11.43
78225;BMP280;67498;53.650;10.090;2024-02-15T00:37:44;101337.84;;;11.43
78225;BMP280;67498;53.650;10.090;2024-02-15T00:40:10;101331.88;;;11.46
78225;BMP280;67498;53.650;10.090;2024-02-15T00:42:36;101337.09;;;11.46
78225;BMP280;67498;53.650;10.090;2024-02-15T00:45:01;101337.47;;;11.45
78225;BMP280;67498;53.650;10.090;2024-02-15T00:47:27;101333.31;;;11.47
78225;BMP280;67498;53.650;10.090;2024-02-15T00:49:53;101337.84;;;11.47
78225;BMP280;67498;53.650;10.090;2024-02-15T00:52:18;101335.94;;;11.47
78225;BMP280;67498;53.650;10.090;2024-02-15T00:54:44;101342.66;;;11.48
78225;BMP280;67498;53.650;10.090;2024-02-15T00:57:09;101342.31;;;11.46
78225;BMP280;67498;53.650;10.090;2024-02-15T00:59:35;101341.16;;;11.47
78225;BMP280;67498;53.650;10.090;2024-02-15T01:02:01;101346.75;;;11.49
78225;BMP280;67498;53.650;10.090;2024-02-15T01:04:27;101346.03;;;11.49
78225;BMP280;67498;53.650;10.090;2024-02-15T01:06:52;101350.13;;;11.50
78225;BMP280;67498;53.650;10.090;2024-02-15T01:09:18;101358.72;;;11.50
78225;BMP280;67498;53.650;10.090;2024-02-15T01:11:43;101360.22;;;11.52
78225;BMP280;67498;53.650;10.090;2024-02-15T01:14:08;101362.09;;;11.51
78225;BMP280;67498;53.650;10.090;2024-02-15T01:16:35;101347.88;;;11.52
78225;BMP280;67498;53.650;10.090;2024-02-15T01:19:01;101347.91;;;11.48
78225;BMP280;67498;53.650;10.090;2024-02-15T01:21:26;101352.00;;;11.53
78225;BMP280;67498;53.650;10.090;2024-02-15T01:23:52;101355.34;;;11.54
78225;BMP280;67498;53.650;10.090;2024-02-15T01:26:19;101345.63;;;11.54
78225;BMP280;67498;53.650;10.090;2024-02-15T01:28:45;101354.22;;;11.55
78225;BMP280;67498;53.650;10.090;2024-02-15T01:31:10;101350.88;;;11.54
78225;BMP280;67498;53.650;10.090;2024-02-15T01:33:37;101347.50;;;11.54
78225;BMP280;67498;53.650;10.090;2024-02-15T01:36:06;101347.13;;;11.55
78225;BMP280;67498;53.650;10.090;2024-02-15T01:38:31;101349.00;;;11.55
78225;BMP280;67498;53.650;10.090;2024-02-15T01:40:56;101345.22;;;11.56
78225;BMP280;67498;53.650;10.090;2024-02-15T01:43:21;101350.47;;;11.56
78225;BMP280;67498;53.650;10.090;2024-02-15T01:45:49;101351.59;;;11.55
78225;BMP280;67498;53.650;10.090;2024-02-15T01:48:15;101341.53;;;11.53
78225;BMP280;67498;53.650;10.090;2024-02-15T01:50:41;101343.03;;;11.54
78225;BMP280;67498;53.650;10.090;2024-02-15T01:53:07;101349.75;;;11.55
78225;BMP280;67498;53.650;10.090;2024-02-15T01:55:33;101347.84;;;11.56
78225;BMP280;67498;53.650;10.090;2024-02-15T01:58:00;101348.25;;;11.54
78225;BMP280;67498;53.650;10.090;2024-02-15T02:00:26;101343.34;;;11.56
78225;BMP280;67498;53.650;10.090;2024-02-15T02:02:53;101345.22;;;11.56
78225;BMP280;67498;53.650;10.090;2024-02-15T02:05:19;101348.22;;;11.58
78225;BMP280;67498;53.650;10.090;2024-02-15T02:07:44;101351.94;;;11.57
78225;BMP280;67498;53.650;10.090;2024-02-15T02:10:09;101350.47;;;11.56
78225;BMP280;67498;53.650;10.090;2024-02-15T02:12:39;101340.75;;;11.56
78225;BMP280;67498;53.650;10.090;2024-02-15T02:15:06;101339.59;;;11.57
78225;BMP280;67498;53.650;10.090;2024-02-15T02:17:32;101348.22;;;11.58
78225;BMP280;67498;53.650;10.090;2024-02-15T02:19:58;101342.22;;;11.57
78225;BMP280;67498;53.650;10.090;2024-02-15T02:22:23;101343.00;;;11.58
78225;BMP280;67498;53.650;10.090;2024-02-15T02:25:05;101337.75;;;11.58
78225;BMP280;67498;53.650;10.090;2024-02-15T02:27:35;101337.00;;;11.57
78225;BMP280;67498;53.650;10.090;2024-02-15T02:30:03;101334.78;;;11.56
78225;BMP280;67498;53.650;10.090;2024-02-15T02:32:32;101337.75;;;11.58
78225;BMP280;67498;53.650;10.090;2024-02-15T02:34:58;101343.72;;;11.58
78225;BMP280;67498;53.650;10.090;2024-02-15T02:37:24;101341.84;;;11.59
78225;BMP280;67498;53.650;10.090;2024-02-15T02:39:50;101341.13;;;11.58
78225;BMP280;67498;53.650;10.090;2024-02-15T02:42:15;101347.09;;;11.59
78225;BMP280;67498;53.650;10.090;2024-02-15T02:44:40;101344.09;;;11.57
78225;BMP280;67498;53.650;10.090;2024-02-15T02:47:06;101344.47;;;11.59
78225;BMP280;67498;53.650;10.090;2024-02-15T02:49:31;101347.81;;;11.59
78225;BMP280;67498;53.650;10.090;2024-02-15T02:51:56;101343.34;;;11.60
78225;BMP280;67498;53.650;10.090;2024-02-15T02:54:21;101351.56;;;11.58
78225;BMP280;67498;53.650;10.090;2024-02-15T02:56:47;101344.47;;;11.59
78225;BMP280;67498;53.650;10.090;2024-02-15T02:59:12;101338.50;;;11.58
78225;BMP280;67498;53.650;10.090;2024-02-15T03:01:37;101341.84;;;11.59
78225;BMP280;67498;53.650;10.090;2024-02-15T03:04:04;101339.97;;;11.59
78225;BMP280;67498;53.650;10.090;2024-02-15T03:06:30;101339.97;;;11.59
78225;BMP280;67498;53.650;10.090;2024-02-15T03:08:55;101335.13;;;11.61
78225;BMP280;67498;53.650;10.090;2024-02-15T03:11:20;101337.00;;;11.61
78225;BMP280;67498;53.650;10.090;2024-02-15T03:13:46;101338.88;;;11.60
78225;BMP280;67498;53.650;10.090;2024-02-15T03:16:13;101339.63;;;11.61
78225;BMP280;67498;53.650;10.090;2024-02-15T03:18:38;101339.63;;;11.61
78225;BMP280;67498;53.650;10.090;2024-02-15T03:21:04;101344.09;;;11.60
78225;BMP280;67498;53.650;10.090;2024-02-15T03:23:29;101342.59;;;11.59
78225;BMP280;67498;53.650;10.090;2024-02-15T03:25:54;101338.88;;;11.60
78225;BMP280;67498;53.650;10.090;2024-02-15T03:28:20;101344.84;;;11.61
78225;BMP280;67498;53.650;10.090;2024-02-15T03:30:46;101344.84;;;11.61
78225;BMP280;67498;53.650;10.090;2024-02-15T03:33:12;101354.94;;;11.62
78225;BMP280;67498;53.650;10.090;2024-02-15T03:35:38;101354.16;;;11.62
78225;BMP280;67498;53.650;10.090;2024-02-15T03:38:03;101347.09;;;11.62
78225;BMP280;67498;53.650;10.090;2024-02-15T03:40:29;101350.41;;;11.63
78225;BMP280;67498;53.650;10.090;2024-02-15T03:42:55;101351.16;;;11.63
78225;BMP280;67498;53.650;10.090;2024-02-15T03:45:21;101351.91;;;11.64
78225;BMP280;67498;53.650;10.090;2024-02-15T03:47:49;101361.25;;;11.65
78225;BMP280;67498;53.650;10.090;2024-02-15T03:50:15;101359.38;;;11.65
78225;BMP280;67498;53.650;10.090;2024-02-15T03:52:40;101365.34;;;11.66
78225;BMP280;67498;53.650;10.090;2024-02-15T03:55:06;101365.34;;;11.66
78225;BMP280;67498;53.650;10.090;2024-02-15T03:57:32;101364.25;;;11.67
78225;BMP280;67498;53.650;10.090;2024-02-15T03:59:59;101364.59;;;11.65
78225;BMP280;67498;53.650;10.090;2024-02-15T04:02:25;101366.09;;;11.66
78225;BMP280;67498;53.650;10.090;2024-02-15T04:04:55;101362.72;;;11.66
78225;BMP280;67498;53.650;10.090;2024-02-15T04:07:22;101356.75;;;11.65
78225;BMP280;67498;53.650;10.090;2024-02-15T04:09:50;101372.09;;;11.67
78225;BMP280;67498;53.650;10.090;2024-02-15T04:12:16;101370.22;;;11.67
78225;BMP280;67498;53.650;10.090;2024-02-15T04:14:42;101355.63;;;11.66
78225;BMP280;67498;53.650;10.090;2024-02-15T04:17:10;101358.59;;;11.68
78225;BMP280;67498;53.650;10.090;2024-02-15T04:19:35;101357.88;;;11.68
78225;BMP280;67498;53.650;10.090;2024-02-15T04:22:02;101364.59;;;11.69
78225;BMP280;67498;53.650;10.090;2024-02-15T04:24:33;101362.72;;;11.69
78225;BMP280;67498;53.650;10.090;2024-02-15T04:26:59;101369.03;;;11.72
78225;BMP280;67498;53.650;10.090;2024-02-15T04:29:24;101364.94;;;11.74
78225;BMP280;67498;53.650;10.090;2024-02-15T04:31:50;101368.66;;;11.73
78225;BMP280;67498;53.650;10.090;2024-02-15T04:34:16;101376.50;;;11.77
78225;BMP280;67498;53.650;10.090;2024-02-15T04:36:45;101369.03;;;11.72
78225;BMP280;67498;53.650;10.090;2024-02-15T04:39:15;101378.69;;;11.79
78225;BMP280;67498;53.650;10.090;2024-02-15T04:41:48;101384.34;;;11.77
78225;BMP280;67498;53.650;10.090;2024-02-15T04:44:14;101380.56;;;11.78
78225;BMP280;67498;53.650;10.090;2024-02-15T04:46:41;101384.34;;;11.77
78225;BMP280;67498;53.650;10.090;2024-02-15T04:49:08;101386.59;;;11.75
78225;BMP280;67498;53.650;10.090;2024-02-15T04:51:33;101388.06;;;11.76
78225;BMP280;67498;53.650;10.090;2024-02-15T04:53:58;101393.69;;;11.74
78225;BMP280;67498;53.650;10.090;2024-02-15T04:56:27;101394.44;;;11.75
78225;BMP280;67498;53.650;10.090;2024-02-15T04:58:52;101408.25;;;11.76
78225;BMP280;67498;53.650;10.090;2024-02-15T05:01:17;101401.16;;;11.76
78225;BMP280;67498;53.650;10.090;2024-02-15T05:03:46;101405.66;;;11.76
78225;BMP280;67498;53.650;10.090;2024-02-15T05:06:12;101397.81;;;11.72
78225;BMP280;67498;53.650;10.090;2024-02-15T05:08:39;101400.81;;;11.74
78225;BMP280;67498;53.650;10.090;2024-02-15T05:11:11;101400.81;;;11.74
78225;BMP280;67498;53.650;10.090;2024-02-15T05:13:45;101400.81;;;11.74
78225;BMP280;67498;53.650;10.090;2024-02-15T05:16:11;101405.66;;;11.76
78225;BMP280;67498;53.650;10.090;2024-02-15T05:18:36;101409.00;;;11.76
78225;BMP280;67498;53.650;10.090;2024-02-15T05:21:03;101398.19;;;11.74
78225;BMP280;67498;53.650;10.090;2024-02-15T05:23:29;101403.03;;;11.76
78225;BMP280;67498;53.650;10.090;2024-02-15T05:25:55;101398.53;;;11.76
78225;BMP280;67498;53.650;10.090;2024-02-15T05:28:21;101398.53;;;11.76
78225;BMP280;67498;53.650;10.090;2024-02-15T05:31:15;101388.84;;;11.77
78225;BMP280;67498;53.650;10.090;2024-02-15T05:33:45;101387.69;;;11.78
78225;BMP280;67498;53.650;10.090;2024-02-15T05:36:17;101384.34;;;11.77
78225;BMP280;67498;53.650;10.090;2024-02-15T05:38:49;101382.50;;;11.74
78225;BMP280;67498;53.650;10.090;2024-02-15T05:41:15;101385.78;;;11.78
78225;BMP280;67498;53.650;10.090;2024-02-15T05:43:41;101389.16;;;11.79
78225;BMP280;67498;53.650;10.090;2024-02-15T05:46:07;101383.91;;;11.79
78225;BMP280;67498;53.650;10.090;2024-02-15T05:48:34;101385.09;;;11.78
78225;BMP280;67498;53.650;10.090;2024-02-15T05:51:04;101377.94;;;11.78
78225;BMP280;67498;53.650;10.090;2024-02-15T05:53:30;101377.94;;;11.78
78225;BMP280;67498;53.650;10.090;2024-02-15T05:55:56;101384.69;;;11.79
78225;BMP280;67498;53.650;10.090;2024-02-15T05:58:23;101373.47;;;11.79
78225;BMP280;67498;53.650;10.090;2024-02-15T06:00:48;101384.69;;;11.79
78225;BMP280;67498;53.650;10.090;2024-02-15T06:03:15;101380.94;;;11.80
78225;BMP280;67498;53.650;10.090;2024-02-15T06:05:41;101383.56;;;11.80
78225;BMP280;67498;53.650;10.090;2024-02-15T06:08:06;101384.34;;;11.77
78225;BMP280;67498;53.650;10.090;2024-02-15T06:10:32;101389.53;;;11.81
78225;BMP280;67498;53.650;10.090;2024-02-15T06:12:57;101388.41;;;11.82
78225;BMP280;67498;53.650;10.090;2024-02-15T06:15:26;101392.91;;;11.81
78225;BMP280;67498;53.650;10.090;2024-02-15T06:17:52;101388.41;;;11.82
78225;BMP280;67498;53.650;10.090;2024-02-15T06:20:17;101389.53;;;11.81
78225;BMP280;67498;53.650;10.090;2024-02-15T06:22:47;101393.66;;;11.82
78225;BMP280;67498;53.650;10.090;2024-02-15T06:25:12;101403.38;;;11.81
78225;BMP280;67498;53.650;10.090;2024-02-15T06:27:45;101408.59;;;11.81
78225;BMP280;67498;53.650;10.090;2024-02-15T06:30:12;101396.25;;;11.82
78225;BMP280;67498;53.650;10.090;2024-02-15T06:32:57;101404.84;;;11.82
78225;BMP280;67498;53.650;10.090;2024-02-15T06:35:41;101401.50;;;11.82
78225;BMP280;67498;53.650;10.090;2024-02-15T06:38:25;101396.25;;;11.82
78225;BMP280;67498;53.650;10.090;2024-02-15T06:41:09;101406.00;;;11.81
78225;BMP280;67498;53.650;10.090;2024-02-15T06:43:37;101395.13;;;11.83
78225;BMP280;67498;53.650;10.090;2024-02-15T06:46:06;101393.66;;;11.82
78225;BMP280;67498;53.650;10.090;2024-02-15T06:48:31;101410.09;;;11.82
78225;BMP280;67498;53.650;10.090;2024-02-15T06:50:56;101403.38;;;11.81
78225;BMP280;67498;53.650;10.090;2024-02-15T06:53:22;101398.50;;;11.83
78225;BMP280;67498;53.650;10.090;2024-02-15T06:55:47;101407.47;;;11.82
78225;BMP280;67498;53.650;10.090;2024-02-15T06:58:17;101407.84;;;11.84
78225;BMP280;67498;53.650;10.090;2024-02-15T07:00:43;101400.72;;;11.85
78225;BMP280;67498;53.650;10.090;2024-02-15T07:03:09;101401.88;;;11.84
78225;BMP280;67498;53.650;10.090;2024-02-15T07:05:36;101410.47;;;11.84
78225;BMP280;67498;53.650;10.090;2024-02-15T07:08:04;101413.81;;;11.85
78225;BMP280;67498;53.650;10.090;2024-02-15T07:10:30;101406.34;;;11.83
78225;BMP280;67498;53.650;10.090;2024-02-15T07:12:56;101413.41;;;11.86
78225;BMP280;67498;53.650;10.090;2024-02-15T07:15:21;101410.03;;;11.86
78225;BMP280;67498;53.650;10.090;2024-02-15T07:17:47;101405.97;;;11.85
78225;BMP280;67498;53.650;10.090;2024-02-15T07:20:13;101402.94;;;11.86
78225;BMP280;67498;53.650;10.090;2024-02-15T07:22:43;101397.72;;;11.86
78225;BMP280;67498;53.650;10.090;2024-02-15T07:25:09;101410.81;;;11.86
78225;BMP280;67498;53.650;10.090;2024-02-15T07:27:35;101410.03;;;11.86
78225;BMP280;67498;53.650;10.090;2024-02-15T07:30:00;101412.28;;;11.87
78225;BMP280;67498;53.650;10.090;2024-02-15T07:32:26;101414.53;;;11.89
78225;BMP280;67498;53.650;10.090;2024-02-15T07:34:52;101416.41;;;11.88
78225;BMP280;67498;53.650;10.090;2024-02-15T07:37:17;101414.53;;;11.89
78225;BMP280;67498;53.650;10.090;2024-02-15T07:39:42;101412.66;;;11.89
78225;BMP280;67498;53.650;10.090;2024-02-15T07:42:07;101417.53;;;11.91
78225;BMP280;67498;53.650;10.090;2024-02-15T07:44:37;101416.75;;;11.90
78225;BMP280;67498;53.650;10.090;2024-02-15T07:47:03;101425.38;;;11.91
78225;BMP280;67498;53.650;10.090;2024-02-15T07:49:31;101424.22;;;11.92
78225;BMP280;67498;53.650;10.090;2024-02-15T07:51:56;101427.59;;;11.92
78225;BMP280;67498;53.650;10.090;2024-02-15T07:54:23;101424.56;;;11.94
78225;BMP280;67498;53.650;10.090;2024-02-15T07:56:49;101425.31;;;11.94
78225;BMP280;67498;53.650;10.090;2024-02-15T07:59:15;101430.19;;;11.96
78225;BMP280;67498;53.650;10.090;2024-02-15T08:01:44;101420.13;;;11.91
78225;BMP280;67498;53.650;10.090;2024-02-15T08:04:12;101424.22;;;11.95
78225;BMP280;67498;53.650;10.090;2024-02-15T08:06:38;101416.34;;;11.95
78225;BMP280;67498;53.650;10.090;2024-02-15T08:09:03;101423.44;;;11.95
78225;BMP280;67498;53.650;10.090;2024-02-15T08:11:31;101432.06;;;11.95
78225;BMP280;67498;53.650;10.090;2024-02-15T08:13:57;101427.56;;;11.96
78225;BMP280;67498;53.650;10.090;2024-02-15T08:16:25;101425.69;;;11.96
78225;BMP280;67498;53.650;10.090;2024-02-15T08:18:54;101432.41;;;11.97
78225;BMP280;67498;53.650;10.090;2024-02-15T08:21:29;101425.69;;;11.96
78225;BMP280;67498;53.650;10.090;2024-02-15T08:23:58;101426.44;;;11.97
78225;BMP280;67498;53.650;10.090;2024-02-15T08:26:23;101434.66;;;11.99
78225;BMP280;67498;53.650;10.090;2024-02-15T08:28:49;101426.81;;;11.99
78225;BMP280;67498;53.650;10.090;2024-02-15T08:31:14;101423.44;;;11.98
78225;BMP280;67498;53.650;10.090;2024-02-15T08:33:41;101432.78;;;12.00
78225;BMP280;67498;53.650;10.090;2024-02-15T08:36:08;101424.91;;;12.00
78225;BMP280;67498;53.650;10.090;2024-02-15T08:38:35;101428.25;;;12.00
78225;BMP280;67498;53.650;10.090;2024-02-15T08:41:02;101432.38;;;12.01
78225;BMP280;67498;53.650;10.090;2024-02-15T08:43:28;101412.97;;;11.98
78225;BMP280;67498;53.650;10.090;2024-02-15T08:45:54;101425.63;;;12.04
78225;BMP280;67498;53.650;10.090;2024-02-15T08:48:19;101422.66;;;12.05
78225;BMP280;67498;53.650;10.090;2024-02-15T08:50:44;101423.38;;;12.06
78225;BMP280;67498;53.650;10.090;2024-02-15T08:53:10;101415.53;;;12.06
78225;BMP280;67498;53.650;10.090;2024-02-15T08:55:36;101419.22;;;12.08
78225;BMP280;67498;53.650;10.090;2024-02-15T08:58:01;101406.16;;;12.08
78225;BMP280;67498;53.650;10.090;2024-02-15T09:00:27;101407.97;;;12.15
78225;BMP280;67498;53.650;10.090;2024-02-15T09:02:53;101408.31;;;12.20
78225;BMP280;67498;53.650;10.090;2024-02-15T09:05:18;101413.09;;;12.26
78225;BMP280;67498;53.650;10.090;2024-02-15T09:07:45;101411.19;;;12.30
78225;BMP280;67498;53.650;10.090;2024-02-15T09:10:15;101407.81;;;12.33
78225;BMP280;67498;53.650;10.090;2024-02-15T09:12:44;101416.38;;;12.37
78225;BMP280;67498;53.650;10.090;2024-02-15T09:15:12;101407.38;;;12.38
78225;BMP280;67498;53.650;10.090;2024-02-15T09:17:39;101413.72;;;12.40
78225;BMP280;67498;53.650;10.090;2024-02-15T09:20:08;101412.59;;;12.41
78225;BMP280;67498;53.650;10.090;2024-02-15T09:22:34;101410.34;;;12.40
78225;BMP280;67498;53.650;10.090;2024-02-15T09:25:02;101414.09;;;12.42
78225;BMP280;67498;53.650;10.090;2024-02-15T09:27:27;101418.19;;;12.43
78225;BMP280;67498;53.650;10.090;2024-02-15T09:29:52;101415.56;;;12.43
78225;BMP280;67498;53.650;10.090;2024-02-15T09:32:18;101418.53;;;12.45
78225;BMP280;67498;53.650;10.090;2024-02-15T09:34:43;101415.91;;;12.49
78225;BMP280;67498;53.650;10.090;2024-02-15T09:37:08;101414.72;;;12.54
78225;BMP280;67498;53.650;10.090;2024-02-15T09:39:34;101416.53;;;12.57
78225;BMP280;67498;53.650;10.090;2024-02-15T09:42:01;101412.78;;;12.61
78225;BMP280;67498;53.650;10.090;2024-02-15T09:44:26;101404.88;;;12.65
78225;BMP280;67498;53.650;10.090;2024-02-15T09:47:04;101411.59;;;12.69
78225;BMP280;67498;53.650;10.090;2024-02-15T09:49:37;101402.59;;;12.70
78225;BMP280;67498;53.650;10.090;2024-02-15T09:52:06;101413.41;;;12.73
78225;BMP280;67498;53.650;10.090;2024-02-15T09:54:32;101413.41;;;12.73
78225;BMP280;67498;53.650;10.090;2024-02-15T09:57:01;101408.53;;;12.71
78225;BMP280;67498;53.650;10.090;2024-02-15T09:59:26;101414.50;;;12.71
78225;BMP280;67498;53.650;10.090;2024-02-15T10:01:55;101414.13;;;12.73
78225;BMP280;67498;53.650;10.090;2024-02-15T10:04:23;101422.38;;;12.75
78225;BMP280;67498;53.650;10.090;2024-02-15T10:06:50;101410.75;;;12.76
78225;BMP280;67498;53.650;10.090;2024-02-15T10:09:29;101408.88;;;12.77
78225;BMP280;67498;53.650;10.090;2024-02-15T10:11:55;101409.63;;;12.77
78225;BMP280;67498;53.650;10.090;2024-02-15T10:14:22;101411.50;;;12.77
78225;BMP280;67498;53.650;10.090;2024-02-15T10:16:47;101418.94;;;12.78
78225;BMP280;67498;53.650;10.090;2024-02-15T10:19:13;101418.94;;;12.78
78225;BMP280;67498;53.650;10.090;2024-02-15T10:21:40;101424.59;;;12.77
78225;BMP280;67498;53.650;10.090;2024-02-15T10:24:06;101414.13;;;12.77
78225;BMP280;67498;53.650;10.090;2024-02-15T10:26:32;101423.44;;;12.78
78225;BMP280;67498;53.650;10.090;2024-02-15T10:29:10;101423.06;;;12.79
78225;BMP280;67498;53.650;10.090;2024-02-15T10:31:37;101418.16;;;12.81
78225;BMP280;67498;53.650;10.090;2024-02-15T10:34:04;101410.69;;;12.80
78225;BMP280;67498;53.650;10.090;2024-02-15T10:36:30;101407.72;;;12.78
78225;BMP280;67498;53.650;10.090;2024-02-15T10:39:15;101409.19;;;12.79
78225;BMP280;67498;53.650;10.090;2024-02-15T10:41:50;101409.97;;;12.79
78225;BMP280;67498;53.650;10.090;2024-02-15T10:44:20;101407.63;;;12.85
78225;BMP280;67498;53.650;10.090;2024-02-15T10:46:47;101411.72;;;12.86
78225;BMP280;67498;53.650;10.090;2024-02-15T10:49:26;101399.78;;;12.85
78225;BMP280;67498;53.650;10.090;2024-02-15T10:51:58;101406.47;;;12.89
78225;BMP280;67498;53.650;10.090;2024-02-15T10:54:52;101409.09;;;12.89
78225;BMP280;67498;53.650;10.090;2024-02-15T10:57:21;101407.59;;;12.88
78225;BMP280;67498;53.650;10.090;2024-02-15T10:59:57;101409.84;;;12.90
78225;BMP280;67498;53.650;10.090;2024-02-15T11:02:27;101402.31;;;12.92
78225;BMP280;67498;53.650;10.090;2024-02-15T11:05:02;101407.91;;;12.94
78225;BMP280;67498;53.650;10.090;2024-02-15T11:07:30;101405.66;;;12.96
78225;BMP280;67498;53.650;10.090;2024-02-15T11:09:56;101391.78;;;12.95
78225;BMP280;67498;53.650;10.090;2024-02-15T11:12:25;101394.03;;;12.97
78225;BMP280;67498;53.650;10.090;2024-02-15T11:14:52;101393.97;;;13.01
78225;BMP280;67498;53.650;10.090;2024-02-15T11:17:44;101389.06;;;13.03
78225;BMP280;67498;53.650;10.090;2024-02-15T11:22:58;101392.75;;;13.09
78225;BMP280;67498;53.650;10.090;2024-02-15T11:25:36;101392.38;;;13.10
78225;BMP280;67498;53.650;10.090;2024-02-15T11:30:51;101378.09;;;13.11
78225;BMP280;67498;53.650;10.090;2024-02-15T11:33:27;101382.97;;;13.13
78225;BMP280;67498;53.650;10.090;2024-02-15T11:36:06;101375.84;;;13.13
78225;BMP280;67498;53.650;10.090;2024-02-15T11:38:34;101376.94;;;13.12
78225;BMP280;67498;53.650;10.090;2024-02-15T11:41:04;101378.44;;;13.13
78225;BMP280;67498;53.650;10.090;2024-02-15T11:46:24;101371.69;;;13.12
78225;BMP280;67498;53.650;10.090;2024-02-15T11:48:51;101375.09;;;13.13
78225;BMP280;67498;53.650;10.090;2024-02-15T11:51:30;101372.84;;;13.11
78225;BMP280;67498;53.650;10.090;2024-02-15T11:54:01;101364.97;;;13.11
78225;BMP280;67498;53.650;10.090;2024-02-15T11:56:30;101369.16;;;13.09
78225;BMP280;67498;53.650;10.090;2024-02-15T11:59:02;101365.78;;;13.08
78225;BMP280;67498;53.650;10.090;2024-02-15T12:01:31;101366.16;;;13.07
78225;BMP280;67498;53.650;10.090;2024-02-15T12:04:15;101364.69;;;13.06
78225;BMP280;67498;53.650;10.090;2024-02-15T12:06:59;101368.44;;;13.05
78225;BMP280;67498;53.650;10.090;2024-02-15T12:09:43;101356.13;;;13.02
78225;BMP280;67498;53.650;10.090;2024-02-15T12:12:27;101356.94;;;12.99
78225;BMP280;67498;53.650;10.090;2024-02-15T12:15:11;101356.19;;;12.98
78225;BMP280;67498;53.650;10.090;2024-02-15T12:17:55;101356.94;;;12.99
78225;BMP280;67498;53.650;10.090;2024-02-15T12:20:39;101349.09;;;12.95
78225;BMP280;67498;53.650;10.090;2024-02-15T12:23:04;101355.09;;;12.95
78225;BMP280;67498;53.650;10.090;2024-02-15T12:25:32;101344.28;;;12.93
78225;BMP280;67498;53.650;10.090;2024-02-15T12:27:59;101344.59;;;12.95
78225;BMP280;67498;53.650;10.090;2024-02-15T12:30:26;101341.19;;;12.99
78225;BMP280;67498;53.650;10.090;2024-02-15T12:33:11;101338.25;;;12.97
78225;BMP280;67498;53.650;10.090;2024-02-15T12:35:37;101336.41;;;12.93
78225;BMP280;67498;53.650;10.090;2024-02-15T12:38:03;101328.59;;;12.90
78225;BMP280;67498;53.650;10.090;2024-02-15T12:40:35;101339.06;;;12.90
78225;BMP280;67498;53.650;10.090;2024-02-15T12:43:01;101334.63;;;12.87
78225;BMP280;67498;53.650;10.090;2024-02-15T12:45:30;101340.22;;;12.85
78225;BMP280;67498;53.650;10.090;2024-02-15T12:47:56;101338.78;;;12.84
78225;BMP280;67498;53.650;10.090;2024-02-15T12:50:29;101336.88;;;12.85
78225;BMP280;67498;53.650;10.090;2024-02-15T12:52:54;101337.28;;;12.83
78225;BMP280;67498;53.650;10.090;2024-02-15T12:55:29;101336.50;;;12.86
78225;BMP280;67498;53.650;10.090;2024-02-15T12:57:59;101329.00;;;12.85
78225;BMP280;67498;53.650;10.090;2024-02-15T13:00:29;101326.41;;;12.85
78225;BMP280;67498;53.650;10.090;2024-02-15T13:02:57;101324.13;;;12.87
78225;BMP280;67498;53.650;10.090;2024-02-15T13:05:25;101321.56;;;12.83
78225;BMP280;67498;53.650;10.090;2024-02-15T13:07:52;101322.31;;;12.84
78225;BMP280;67498;53.650;10.090;2024-02-15T13:10:18;101315.94;;;12.81
78225;BMP280;67498;53.650;10.090;2024-02-15T13:12:44;101314.47;;;12.80
78225;BMP280;67498;53.650;10.090;2024-02-15T13:15:11;101319.72;;;12.80
78225;BMP280;67498;53.650;10.090;2024-02-15T13:17:40;101310.38;;;12.79
78225;BMP280;67498;53.650;10.090;2024-02-15T13:20:08;101317.09;;;12.80
78225;BMP280;67498;53.650;10.090;2024-02-15T13:22:36;101313.34;;;12.81
78225;BMP280;67498;53.650;10.090;2024-02-15T13:25:03;101307.72;;;12.83
78225;BMP280;67498;53.650;10.090;2024-02-15T13:27:29;101311.47;;;12.82
78225;BMP280;67498;53.650;10.090;2024-02-15T13:29:54;101302.19;;;12.77
78225;BMP280;67498;53.650;10.090;2024-02-15T13:32:20;101305.13;;;12.79
78225;BMP280;67498;53.650;10.090;2024-02-15T13:34:49;101307.34;;;12.81
78225;BMP280;67498;53.650;10.090;2024-02-15T13:37:18;101300.22;;;12.81
78225;BMP280;67498;53.650;10.090;2024-02-15T13:39:43;101304.00;;;12.80
78225;BMP280;67498;53.650;10.090;2024-02-15T13:42:11;101296.50;;;12.79
78225;BMP280;67498;53.650;10.090;2024-02-15T13:44:37;101299.22;;;12.75
78225;BMP280;67498;53.650;10.090;2024-02-15T13:47:02;101293.97;;;12.75
78225;BMP280;67498;53.650;10.090;2024-02-15T13:49:28;101304.44;;;12.75
78225;BMP280;67498;53.650;10.090;2024-02-15T13:51:55;101288.81;;;12.68
78225;BMP280;67498;53.650;10.090;2024-02-15T13:54:20;101286.88;;;12.72
78225;BMP280;67498;53.650;10.090;2024-02-15T13:56:47;101285.47;;;12.67